createdAt,value
2019-05-15T00:04:31.935Z,2.00
2019-05-15T00:09:55.889Z,2.10
2019-05-15T00:15:19.525Z,2.73
2019-05-15T00:20:43.289Z,2.20
2019-05-15T00:26:09.306Z,2.40
2019-05-15T00:31:32.254Z,2.30
2019-05-15T00:36:58.360Z,2.03
2019-05-15T00:42:21.295Z,2.63
2019-05-15T00:47:44.967Z,2.23
2019-05-15T00:53:08.903Z,2.33
2019-05-15T00:58:32.914Z,2.40
2019-05-15T01:03:58.625Z,2.10
2019-05-15T01:09:22.000Z,1.97
2019-05-15T01:14:45.907Z,1.70
2019-05-15T01:20:09.935Z,2.63
2019-05-15T01:25:33.031Z,2.40
2019-05-15T01:30:59.044Z,1.93
2019-05-15T01:36:21.963Z,2.30
2019-05-15T01:41:49.340Z,2.03
2019-05-15T01:47:10.665Z,2.20
2019-05-15T01:52:34.203Z,1.97
2019-05-15T01:57:58.145Z,2.07
2019-05-15T02:03:22.259Z,2.40
2019-05-15T02:08:45.900Z,2.53
2019-05-15T02:14:09.659Z,1.50
2019-05-15T02:19:33.653Z,2.00
2019-05-15T02:24:59.145Z,2.10
2019-05-15T02:30:28.852Z,2.03
2019-05-15T02:35:50.251Z,2.33
2019-05-15T02:41:13.236Z,2.30
2019-05-15T02:46:39.157Z,2.10
2019-05-15T02:52:01.967Z,2.40
2019-05-15T02:57:25.146Z,2.43
2019-05-15T03:02:49.860Z,2.33
2019-05-15T03:08:13.982Z,2.20
2019-05-15T03:13:39.133Z,2.30
2019-05-15T03:19:02.223Z,2.83
2019-05-15T03:24:28.656Z,2.60
2019-05-15T03:29:50.379Z,3.00
2019-05-15T03:35:15.750Z,3.20
2019-05-15T03:40:40.109Z,3.10
2019-05-15T03:46:03.591Z,2.50
2019-05-15T03:51:28.918Z,2.53
2019-05-15T03:56:51.620Z,2.60
2019-05-15T04:02:15.275Z,2.60
2019-05-15T04:07:39.756Z,2.93
2019-05-15T04:13:04.340Z,2.77
2019-05-15T04:18:29.126Z,3.50
2019-05-15T04:23:55.153Z,2.60
2019-05-15T04:29:19.656Z,2.83
2019-05-15T04:34:42.876Z,3.20
2019-05-15T04:40:09.249Z,3.00
2019-05-15T04:45:34.967Z,2.27
2019-05-15T04:50:58.788Z,2.70
2019-05-15T04:56:21.464Z,2.90
2019-05-15T05:01:45.610Z,2.67
2019-05-15T05:07:09.393Z,3.00
2019-05-15T05:12:33.191Z,2.67
2019-05-15T05:17:58.591Z,2.90
2019-05-15T05:23:21.844Z,2.77
2019-05-15T05:28:45.497Z,2.60
2019-05-15T05:34:09.204Z,2.80
2019-05-15T05:39:32.919Z,3.17
2019-05-15T05:44:58.140Z,2.53
2019-05-15T05:50:44.078Z,2.80
2019-05-15T05:56:05.867Z,3.10
2019-05-15T06:01:28.947Z,2.33
2019-05-15T06:07:06.239Z,3.30
2019-05-15T06:12:18.962Z,3.52
2019-05-15T06:17:42.318Z,2.50
2019-05-15T06:23:08.364Z,2.40
2019-05-15T06:28:31.185Z,2.43
2019-05-15T06:33:55.116Z,2.60
2019-05-15T06:39:18.061Z,1.90
2019-05-15T06:44:41.329Z,2.60
2019-05-15T06:50:05.189Z,1.90
2019-05-15T06:55:28.881Z,1.83
2019-05-15T07:00:52.620Z,1.70
2019-05-15T07:06:17.966Z,1.93
2019-05-15T07:11:40.789Z,1.57
2019-05-15T07:17:04.582Z,1.60
2019-05-15T07:22:28.886Z,1.40
2019-05-15T07:27:52.658Z,1.70
2019-05-15T07:33:20.259Z,1.10
2019-05-15T07:38:41.083Z,1.77
2019-05-15T07:44:05.071Z,1.50
2019-05-15T07:49:28.898Z,1.50
2019-05-15T07:54:52.628Z,1.73
2019-05-15T08:00:18.795Z,1.17
2019-05-15T08:05:55.175Z,1.30
2019-05-15T08:11:17.513Z,1.20
2019-05-15T08:16:31.081Z,0.93
2019-05-15T08:21:54.216Z,1.00
2019-05-15T08:27:19.114Z,1.10
2019-05-15T08:32:42.374Z,0.90
2019-05-15T08:38:05.867Z,1.10
2019-05-15T08:43:31.418Z,1.03
2019-05-15T08:48:55.471Z,0.97
2019-05-15T08:54:18.826Z,1.00
2019-05-15T08:59:42.006Z,1.00
2019-05-15T09:05:08.522Z,0.90
2019-05-15T09:10:31.163Z,1.40
2019-05-15T09:15:54.583Z,1.20
2019-05-15T09:21:19.166Z,1.17
2019-05-15T09:26:45.371Z,1.50
2019-05-15T09:32:12.439Z,1.10
2019-05-15T09:37:34.204Z,1.10
2019-05-15T09:42:57.890Z,0.93
2019-05-15T09:48:22.211Z,1.30
2019-05-15T09:53:48.353Z,1.17
2019-05-15T09:59:11.454Z,0.97
2019-05-15T10:04:34.800Z,1.63
2019-05-15T10:09:57.805Z,1.27
2019-05-15T10:15:21.819Z,1.00
2019-05-15T10:20:45.283Z,1.33
2019-05-15T10:26:13.817Z,1.30
2019-05-15T10:31:34.638Z,1.17
2019-05-15T10:36:59.018Z,1.40
2019-05-15T10:42:23.051Z,1.40
2019-05-15T10:47:49.373Z,1.70
2019-05-15T10:53:11.418Z,1.20
2019-05-15T10:58:34.590Z,1.60
2019-05-15T11:03:59.019Z,1.23
2019-05-15T11:09:22.667Z,1.10
2019-05-15T11:14:46.507Z,1.37
2019-05-15T11:20:10.457Z,1.53
2019-05-15T11:25:34.407Z,1.40
2019-05-15T11:30:59.449Z,1.47
2019-05-15T11:36:23.507Z,1.20
2019-05-15T11:41:49.226Z,1.70
2019-05-15T11:47:12.087Z,1.53
2019-05-15T11:52:37.370Z,1.40
2019-05-15T11:58:00.674Z,1.10
2019-05-15T12:03:25.043Z,1.30
2019-05-15T12:08:49.043Z,1.20
2019-05-15T12:14:12.502Z,1.30
2019-05-15T12:19:35.830Z,1.20
2019-05-15T12:25:00.458Z,1.47
2019-05-15T12:30:25.336Z,1.47
2019-05-15T13:02:54.428Z,1.10
2019-05-15T13:08:19.457Z,2.10
2019-05-15T13:13:43.085Z,1.40
2019-05-15T13:19:07.311Z,1.50
2019-05-15T13:24:30.627Z,1.50
2019-05-15T13:29:54.331Z,1.33
2019-05-15T13:35:18.345Z,1.50
2019-05-15T13:40:42.681Z,1.33
2019-05-15T13:46:08.858Z,1.60
2019-05-15T13:51:31.772Z,1.23
2019-05-15T13:56:55.543Z,1.27
2019-05-15T14:02:19.503Z,1.40
2019-05-15T14:07:49.733Z,1.50
2019-05-15T14:13:07.707Z,1.40
2019-05-15T14:18:31.495Z,1.30
2019-05-15T14:23:55.490Z,1.30
2019-05-15T14:29:19.071Z,1.27
2019-05-15T14:34:42.648Z,1.27
2019-05-15T14:40:08.735Z,1.30
2019-05-15T14:45:33.175Z,1.50
2019-05-15T14:50:58.398Z,1.57
2019-05-15T14:56:21.139Z,1.70
2019-05-15T15:01:45.131Z,1.60
2019-05-15T15:07:08.843Z,1.30
2019-05-15T15:12:32.636Z,1.27
2019-05-15T15:17:58.329Z,1.93
2019-05-15T15:23:21.311Z,1.80
2019-05-15T15:28:44.607Z,1.37
2019-05-15T15:34:08.750Z,1.50
2019-05-15T15:39:32.893Z,1.30
2019-05-15T15:44:58.086Z,2.00
2019-05-15T15:50:21.790Z,1.47
2019-05-15T15:55:45.251Z,1.67
2019-05-15T16:01:09.176Z,1.10
2019-05-15T16:06:33.278Z,1.43
2019-05-15T16:11:58.381Z,1.53
2019-05-15T16:17:22.683Z,1.40
2019-05-15T16:22:48.614Z,1.33
2019-05-15T16:28:11.423Z,1.30
2019-05-15T16:33:35.432Z,1.80
2019-05-15T16:39:07.785Z,1.30
2019-05-15T16:44:24.529Z,1.40
2019-05-15T16:49:48.563Z,1.20
2019-05-15T16:55:12.463Z,1.67
2019-05-15T17:00:35.711Z,1.40
2019-05-15T17:05:59.781Z,1.20
2019-05-15T17:11:23.986Z,0.93
2019-05-15T17:16:48.106Z,1.57
2019-05-15T17:22:12.286Z,1.40
2019-05-15T17:27:35.511Z,1.30
2019-05-15T17:32:59.463Z,1.50
2019-05-15T17:38:22.938Z,1.30
2019-05-15T17:43:48.562Z,1.40
2019-05-15T17:49:15.478Z,1.87
2019-05-15T17:54:38.038Z,1.43
2019-05-15T18:00:02.147Z,1.07
2019-05-15T18:05:28.044Z,1.07
2019-05-15T18:10:50.656Z,1.13
2019-05-15T18:16:14.704Z,1.10
2019-05-15T18:21:38.607Z,0.80
2019-05-15T18:27:02.004Z,1.33
2019-05-15T18:32:25.035Z,1.20
2019-05-15T18:37:48.341Z,1.00
2019-05-15T18:43:11.712Z,1.00
2019-05-15T18:48:35.103Z,1.03
2019-05-15T18:53:58.948Z,1.30
2019-05-15T18:59:25.591Z,1.00
2019-05-15T19:04:52.655Z,1.23
2019-05-15T19:10:27.964Z,1.20
2019-05-15T19:16:00.923Z,1.33
2019-05-15T19:21:27.678Z,1.17
2019-05-15T19:26:50.736Z,1.10
2019-05-15T19:32:14.792Z,1.27
2019-05-15T19:37:38.775Z,1.10
2019-05-15T19:43:04.037Z,1.30
2019-05-15T19:48:27.347Z,1.33
2019-05-15T19:53:51.087Z,1.80
2019-05-15T19:59:14.591Z,1.37
2019-05-15T20:04:38.572Z,1.70
2019-05-15T20:10:02.877Z,1.63
2019-05-15T20:15:28.562Z,1.50
2019-05-15T20:20:51.660Z,1.40
2019-05-15T20:26:17.827Z,1.40
2019-05-15T20:31:40.488Z,1.50
2019-05-15T20:37:04.357Z,1.53
2019-05-15T20:42:28.592Z,1.60
2019-05-15T20:47:51.962Z,1.70
2019-05-15T20:53:18.102Z,1.57
2019-05-15T20:58:41.106Z,1.70
2019-05-15T21:04:18.894Z,1.60
2019-05-15T21:09:31.653Z,1.40
2019-05-15T21:14:55.277Z,1.83
2019-05-15T21:20:18.762Z,1.83
2019-05-15T21:25:43.243Z,1.80
2019-05-15T21:31:08.769Z,1.67
2019-05-15T21:36:32.134Z,2.07
2019-05-15T21:41:58.167Z,1.90
2019-05-15T21:47:21.236Z,2.43
2019-05-15T21:52:44.797Z,2.23
2019-05-15T21:58:08.775Z,1.67
2019-05-15T22:03:32.815Z,1.70
2019-05-15T22:08:58.382Z,2.30
2019-05-15T22:14:22.599Z,1.70
2019-05-15T22:19:48.952Z,2.23
2019-05-15T22:25:11.595Z,1.90
2019-05-15T22:30:35.581Z,2.10
2019-05-15T22:35:59.931Z,1.90
2019-05-15T22:41:28.477Z,1.73
2019-05-15T22:46:51.876Z,1.90
2019-05-15T22:52:15.806Z,1.93
2019-05-15T22:57:39.904Z,1.77
2019-05-15T23:03:03.969Z,1.37
2019-05-15T23:08:29.045Z,1.60
2019-05-15T23:13:53.492Z,2.00
2019-05-15T23:19:18.681Z,1.73
2019-05-15T23:24:41.751Z,2.37
2019-05-15T23:30:08.703Z,2.10
2019-05-15T23:35:37.456Z,1.83
2019-05-15T23:40:58.745Z,1.80
2019-05-15T23:46:21.111Z,1.90
2019-05-15T23:51:44.751Z,1.57
2019-05-15T23:57:09.074Z,1.63
